createdAt,value
2018-01-05T00:01:38.769Z,3.47
2018-01-05T00:04:06.324Z,2.90
2018-01-05T00:06:33.839Z,3.07
2018-01-05T00:09:01.478Z,3.73
2018-01-05T00:11:29.759Z,2.47
2018-01-05T00:13:57.329Z,3.20
2018-01-05T00:16:25.630Z,4.03
2018-01-05T00:18:54.091Z,2.60
2018-01-05T00:21:21.613Z,2.80
2018-01-05T00:23:49.153Z,3.23
2018-01-05T00:26:17.480Z,4.20
2018-01-05T00:28:45.036Z,3.40
2018-01-05T00:31:12.584Z,3.47
2018-01-05T00:33:40.101Z,2.17
2018-01-05T00:36:07.668Z,3.20
2018-01-05T00:38:35.183Z,2.40
2018-01-05T00:41:02.776Z,3.40
2018-01-05T00:43:31.073Z,2.70
2018-01-05T00:45:58.665Z,3.70
2018-01-05T00:48:26.171Z,2.80
2018-01-05T00:50:53.694Z,3.30
2018-01-05T00:53:21.250Z,3.50
2018-01-05T00:55:48.807Z,2.83
2018-01-05T00:58:16.369Z,2.57
2018-01-05T01:00:43.892Z,3.40
2018-01-05T01:03:11.438Z,3.20
2018-01-05T01:05:38.967Z,3.33
2018-01-05T01:08:06.528Z,3.03
2018-01-05T01:10:34.063Z,2.63
2018-01-05T01:13:02.388Z,2.40
2018-01-05T01:15:29.902Z,3.23
2018-01-05T01:17:57.416Z,4.00
2018-01-05T01:20:24.972Z,4.53
2018-01-05T01:22:53.267Z,3.67
2018-01-05T01:25:21.585Z,4.20
2018-01-05T01:27:49.108Z,3.13
2018-01-05T01:30:16.681Z,2.50
2018-01-05T01:32:44.204Z,3.70
2018-01-05T01:35:11.778Z,2.90
2018-01-05T01:37:39.284Z,5.77
2018-01-05T01:40:06.835Z,2.80
2018-01-05T01:42:34.347Z,3.30
2018-01-05T01:45:01.910Z,3.37
2018-01-05T01:47:29.416Z,3.00
2018-01-05T01:49:56.972Z,4.83
2018-01-05T01:52:25.247Z,4.60
2018-01-05T01:54:52.772Z,3.53
2018-01-05T01:57:20.311Z,3.60
2018-01-05T01:59:48.584Z,3.90
2018-01-05T02:02:16.902Z,3.13
2018-01-05T02:04:44.424Z,3.37
2018-01-05T02:07:11.967Z,2.60
2018-01-05T02:09:39.482Z,3.20
2018-01-05T02:12:07.044Z,3.17
2018-01-05T02:14:34.563Z,2.80
2018-01-05T02:17:02.112Z,4.20
2018-01-05T02:19:30.395Z,3.90
2018-01-05T02:21:57.960Z,3.20
2018-01-05T02:24:25.479Z,3.27
2018-01-05T02:26:52.995Z,3.43
2018-01-05T02:29:20.536Z,3.17
2018-01-05T02:31:48.052Z,4.77
2018-01-05T02:34:15.597Z,2.93
2018-01-05T02:36:43.173Z,3.30
2018-01-05T02:39:10.756Z,2.40
2018-01-05T02:41:38.268Z,3.33
2018-01-05T02:44:05.820Z,3.60
2018-01-05T02:46:33.334Z,4.00
2018-01-05T02:49:00.909Z,4.10
2018-01-05T02:51:28.432Z,3.43
2018-01-05T02:53:55.940Z,3.63
2018-01-05T02:56:23.507Z,3.63
2018-01-05T02:58:51.022Z,3.53
2018-01-05T03:01:19.040Z,3.20
2018-01-05T03:03:47.323Z,3.00
2018-01-05T03:06:15.664Z,3.67
2018-01-05T03:08:43.178Z,2.93
2018-01-05T03:11:10.724Z,3.40
2018-01-05T03:13:39.036Z,3.03
2018-01-05T03:16:06.582Z,3.20
2018-01-05T03:18:34.098Z,2.80
2018-01-05T03:21:02.439Z,2.97
2018-01-05T03:23:29.944Z,3.87
2018-01-05T03:25:57.459Z,3.80
2018-01-05T03:28:25.011Z,3.20
2018-01-05T03:30:53.288Z,4.30
2018-01-05T03:33:21.608Z,3.40
2018-01-05T03:35:49.117Z,4.17
2018-01-05T03:38:16.676Z,3.77
2018-01-05T03:40:44.183Z,4.23
2018-01-05T03:43:11.757Z,3.23
2018-01-05T03:45:40.148Z,3.40
2018-01-05T03:48:07.702Z,3.73
2018-01-05T03:50:35.216Z,3.17
2018-01-05T03:53:02.783Z,3.50
2018-01-05T03:55:30.289Z,2.93
2018-01-05T03:57:57.800Z,3.57
2018-01-05T04:00:25.352Z,3.83
2018-01-05T04:02:52.864Z,4.13
2018-01-05T04:05:21.177Z,4.30
2018-01-05T04:07:48.688Z,3.67
2018-01-05T04:10:16.260Z,3.73
2018-01-05T04:12:43.774Z,3.47
2018-01-05T04:15:12.101Z,4.50
2018-01-05T04:17:39.612Z,4.27
2018-01-05T04:20:07.123Z,3.10
2018-01-05T04:22:34.668Z,3.87
2018-01-05T04:25:02.188Z,3.03
2018-01-05T04:27:29.736Z,3.07
2018-01-05T04:29:57.255Z,2.93
2018-01-05T04:32:24.804Z,3.57
2018-01-05T04:34:52.328Z,2.00
2018-01-05T04:37:19.877Z,1.80
2018-01-05T04:39:47.374Z,2.07
2018-01-05T04:42:14.932Z,2.00
2018-01-05T04:44:42.473Z,1.47
2018-01-05T04:47:10.019Z,2.90
2018-01-05T04:49:37.535Z,1.83
2018-01-05T04:52:05.063Z,2.90
2018-01-05T04:54:32.612Z,1.80
2018-01-05T04:57:00.886Z,1.50
2018-01-05T04:59:28.423Z,2.57
2018-01-05T05:01:55.935Z,1.50
2018-01-05T05:04:23.499Z,1.60
2018-01-05T05:06:51.012Z,1.60
2018-01-05T05:09:18.554Z,1.80
2018-01-05T05:11:46.068Z,1.87
2018-01-05T05:14:13.587Z,1.50
2018-01-05T05:16:41.131Z,2.00
2018-01-05T05:19:08.679Z,1.83
2018-01-05T05:21:36.218Z,1.50
2018-01-05T05:24:04.493Z,1.60
2018-01-05T05:26:32.054Z,1.63
2018-01-05T05:28:59.560Z,2.10
2018-01-05T05:31:27.124Z,1.60
2018-01-05T05:33:54.787Z,1.77
2018-01-05T05:36:22.298Z,1.40
2018-01-05T05:38:49.843Z,1.80
2018-01-05T05:41:18.119Z,1.83
2018-01-05T05:43:45.664Z,2.03
2018-01-05T05:46:13.201Z,2.10
2018-01-05T05:48:40.752Z,1.10
2018-01-05T05:51:09.036Z,1.77
2018-01-05T05:53:36.577Z,1.70
2018-01-05T05:56:04.118Z,1.93
2018-01-05T05:58:31.679Z,2.07
2018-01-05T06:00:59.201Z,2.37
2018-01-05T06:03:26.706Z,1.43
2018-01-05T06:05:55.034Z,1.50
2018-01-05T06:08:22.568Z,2.00
2018-01-05T06:10:50.895Z,1.43
2018-01-05T06:13:18.405Z,1.50
2018-01-05T06:15:45.948Z,1.47
2018-01-05T06:18:13.468Z,2.27
2018-01-05T06:20:41.049Z,1.80
2018-01-05T06:23:08.561Z,1.40
2018-01-05T06:25:36.106Z,1.23
2018-01-05T06:28:03.623Z,1.57
2018-01-05T06:30:31.188Z,2.00
2018-01-05T06:32:58.703Z,1.33
2018-01-05T06:35:26.348Z,1.27
2018-01-05T06:37:53.892Z,1.87
2018-01-05T06:40:21.391Z,1.33
2018-01-05T06:42:48.948Z,1.30
2018-01-05T06:45:16.472Z,1.33
2018-01-05T06:47:44.016Z,1.97
2018-01-05T06:50:11.559Z,1.90
2018-01-05T06:52:39.115Z,2.10
2018-01-05T06:55:06.618Z,1.57
2018-01-05T06:57:34.184Z,1.70
2018-01-05T07:00:01.696Z,2.80
2018-01-05T07:02:29.254Z,2.20
2018-01-05T07:04:57.557Z,2.50
2018-01-05T07:07:25.891Z,2.40
2018-01-05T07:09:53.412Z,3.10
2018-01-05T07:12:21.699Z,3.40
2018-01-05T07:14:50.014Z,2.83
2018-01-05T07:17:17.539Z,2.20
2018-01-05T07:19:45.083Z,3.30
2018-01-05T07:22:12.594Z,2.67
2018-01-05T07:24:40.891Z,2.10
2018-01-05T07:27:08.403Z,2.27
2018-01-05T07:29:35.948Z,2.50
2018-01-05T07:32:04.240Z,2.57
2018-01-05T07:34:32.564Z,2.70
2018-01-05T07:37:00.097Z,2.90
2018-01-05T07:39:27.611Z,3.10
2018-01-05T07:41:55.164Z,3.67
2018-01-05T07:44:22.687Z,3.20
2018-01-05T07:46:50.243Z,2.43
2018-01-05T07:49:18.523Z,3.30
2018-01-05T07:51:46.077Z,2.57
2018-01-05T07:54:13.584Z,4.00
2018-01-05T07:56:41.137Z,3.10
2018-01-05T07:59:08.657Z,2.27
2018-01-05T08:01:36.971Z,3.20
2018-01-05T08:04:04.539Z,2.23
2018-01-05T08:06:32.111Z,2.53
2018-01-05T08:08:59.632Z,3.00
2018-01-05T08:11:27.196Z,2.73
2018-01-05T08:13:54.709Z,2.33
2018-01-05T08:16:22.983Z,2.73
2018-01-05T08:18:50.534Z,1.67
2018-01-05T08:21:18.052Z,2.83
2018-01-05T08:23:46.366Z,1.73
2018-01-05T08:26:13.879Z,2.10
2018-01-05T08:28:41.434Z,2.27
2018-01-05T08:31:08.939Z,2.13
2018-01-05T08:33:36.487Z,1.37
2018-01-05T08:36:04.047Z,2.07
2018-01-05T08:38:31.596Z,1.97
2018-01-05T08:40:59.108Z,2.03
2018-01-05T08:43:26.984Z,2.27
2018-01-05T08:45:54.498Z,2.63
2018-01-05T08:48:22.771Z,2.73
2018-01-05T08:50:50.319Z,3.00
2018-01-05T08:53:17.841Z,2.50
2018-01-05T08:55:45.395Z,3.50
2018-01-05T08:58:13.680Z,1.87
2018-01-05T09:00:41.993Z,1.90
2018-01-05T09:03:09.518Z,3.00
2018-01-05T09:05:37.067Z,2.07
2018-01-05T09:08:04.576Z,2.63
2018-01-05T09:10:32.151Z,3.00
2018-01-05T09:13:00.434Z,2.20
2018-01-05T09:15:27.976Z,2.93
2018-01-05T09:17:55.529Z,2.73
2018-01-05T09:20:23.116Z,2.77
2018-01-05T09:22:50.673Z,2.90
2018-01-05T09:25:18.186Z,2.00
2018-01-05T09:27:45.737Z,2.63
2018-01-05T09:30:13.253Z,2.73
2018-01-05T09:32:41.570Z,2.30
2018-01-05T09:35:09.103Z,2.23
2018-01-05T09:37:36.659Z,2.60
2018-01-05T09:40:04.181Z,3.00
2018-01-05T09:42:31.959Z,2.60
2018-01-05T09:44:59.483Z,2.53
2018-01-05T09:47:27.007Z,2.67
2018-01-05T09:49:54.560Z,3.57
2018-01-05T09:52:22.863Z,2.80
2018-01-05T09:54:50.420Z,2.63
2018-01-05T09:57:18.708Z,2.50
2018-01-05T09:59:47.025Z,2.57
2018-01-05T10:02:14.536Z,1.60
2018-01-05T10:04:42.095Z,2.50
2018-01-05T10:07:09.611Z,2.13
2018-01-05T10:09:37.957Z,3.20
2018-01-05T10:12:05.476Z,2.53
2018-01-05T10:14:33.772Z,2.50
2018-01-05T10:17:01.315Z,1.77
2018-01-05T10:19:28.840Z,2.80
2018-01-05T10:21:56.400Z,2.30
2018-01-05T10:24:23.928Z,2.00
2018-01-05T10:26:51.476Z,2.23
2018-01-05T10:29:19.002Z,2.53
2018-01-05T10:31:47.328Z,2.23
2018-01-05T10:34:14.844Z,2.57
2018-01-05T10:36:42.380Z,1.87
2018-01-05T10:39:09.928Z,2.13
2018-01-05T10:41:37.440Z,2.17
2018-01-05T10:44:04.995Z,2.67
2018-01-05T10:46:32.523Z,2.67
2018-01-05T10:49:00.120Z,2.37
2018-01-05T10:51:27.634Z,2.57
2018-01-05T10:53:55.180Z,2.00
2018-01-05T10:56:22.687Z,2.73
2018-01-05T10:58:50.252Z,1.93
2018-01-05T11:01:17.775Z,2.17
2018-01-05T11:03:45.288Z,2.70
2018-01-05T11:06:12.832Z,3.20
2018-01-05T11:08:40.370Z,2.33
2018-01-05T11:11:07.943Z,2.40
2018-01-05T11:13:36.226Z,3.60
2018-01-05T11:16:03.778Z,2.77
2018-01-05T11:18:31.303Z,2.73
2018-01-05T11:20:58.883Z,2.17
2018-01-05T11:23:26.399Z,2.93
2018-01-05T11:25:53.977Z,2.70
2018-01-05T11:28:21.511Z,2.53
2018-01-05T11:30:49.034Z,3.07
2018-01-05T11:33:17.376Z,3.43
2018-01-05T11:35:44.919Z,3.00
2018-01-05T11:38:12.472Z,2.67
2018-01-05T11:40:40.754Z,2.80
2018-01-05T11:43:09.323Z,3.40
2018-01-05T11:45:36.840Z,3.30
2018-01-05T11:48:05.154Z,3.13
2018-01-05T11:50:32.733Z,3.20
2018-01-05T11:53:01.023Z,3.47
2018-01-05T11:55:28.536Z,3.07
2018-01-05T11:57:56.112Z,3.03
2018-01-05T12:00:24.344Z,3.47
2018-01-05T12:02:51.905Z,4.37
2018-01-05T12:05:19.431Z,2.40
2018-01-05T12:07:46.992Z,2.70
2018-01-05T12:10:14.551Z,3.43
2018-01-05T12:12:42.073Z,3.00
2018-01-05T12:15:10.412Z,3.40
2018-01-05T12:17:37.923Z,3.03
2018-01-05T12:20:05.476Z,3.10
2018-01-05T12:22:33.009Z,3.43
2018-01-05T12:25:00.583Z,2.70
2018-01-05T12:27:28.103Z,3.10
2018-01-05T12:29:55.629Z,3.07
2018-01-05T12:32:23.193Z,2.73
2018-01-05T12:34:50.711Z,3.05
2018-01-05T12:37:18.266Z,3.07
2018-01-05T12:39:45.787Z,2.60
2018-01-05T12:42:14.116Z,3.87
2018-01-05T12:44:41.691Z,3.27
2018-01-05T12:47:09.213Z,4.30
2018-01-05T12:49:37.538Z,3.60
2018-01-05T12:52:05.057Z,3.00
2018-01-05T12:54:32.631Z,3.00
2018-01-05T12:57:00.148Z,3.87
2018-01-05T12:59:27.700Z,3.20
2018-01-05T13:01:55.984Z,3.10
2018-01-05T13:04:24.627Z,3.77
2018-01-05T13:06:52.148Z,3.17
2018-01-05T13:09:19.659Z,3.00
2018-01-05T13:11:47.215Z,2.60
2018-01-05T13:14:14.775Z,2.80
2018-01-05T13:16:42.324Z,3.20
2018-01-05T13:19:09.838Z,3.10
2018-01-05T13:21:37.388Z,2.80
2018-01-05T13:24:04.912Z,3.83
2018-01-05T13:26:32.519Z,2.73
2018-01-05T13:29:00.020Z,3.50
2018-01-05T13:31:27.537Z,3.47
2018-01-05T13:33:55.084Z,3.77
2018-01-05T13:36:22.611Z,3.40
2018-01-05T13:38:50.163Z,4.67
2018-01-05T13:41:17.680Z,3.80
2018-01-05T13:43:45.238Z,4.30
2018-01-05T13:46:13.513Z,4.23
2018-01-05T13:48:41.065Z,4.00
2018-01-05T13:51:08.586Z,5.30
2018-01-05T13:53:36.139Z,3.73
2018-01-05T13:56:04.434Z,2.80
2018-01-05T13:58:32.748Z,3.47
2018-01-05T14:01:00.316Z,3.40
2018-01-05T14:03:27.840Z,4.30
2018-01-05T14:05:55.395Z,3.67
2018-01-05T14:08:22.919Z,3.40
2018-01-05T14:10:50.469Z,3.63
2018-01-05T14:13:18.000Z,3.33
2018-01-05T14:15:45.543Z,4.17
2018-01-05T14:18:13.067Z,4.50
2018-01-05T14:20:40.631Z,4.50
2018-01-05T14:23:08.139Z,3.30
2018-01-05T14:25:36.418Z,3.80
2018-01-05T14:28:03.975Z,3.20
2018-01-05T14:30:31.483Z,3.33
2018-01-05T14:32:59.044Z,3.77
2018-01-05T14:35:27.320Z,3.43
2018-01-05T14:37:54.891Z,4.87
2018-01-05T14:40:22.436Z,4.37
2018-01-05T14:42:50.142Z,3.60
2018-01-05T14:45:17.703Z,4.07
2018-01-05T14:47:45.240Z,4.77
2018-01-05T14:50:12.820Z,3.40
2018-01-05T14:52:40.346Z,3.73
2018-01-05T14:55:08.660Z,3.17
2018-01-05T14:57:36.221Z,3.20
2018-01-05T15:00:03.893Z,2.97
2018-01-05T15:02:31.686Z,3.97
2018-01-05T15:04:59.824Z,3.50
2018-01-05T15:07:27.366Z,3.20
2018-01-05T15:09:54.950Z,2.80
2018-01-05T15:12:23.378Z,3.00
2018-01-05T15:14:51.007Z,3.20
2018-01-05T15:17:18.515Z,3.27
2018-01-05T15:19:46.347Z,4.37
2018-01-05T15:22:13.863Z,4.00
2018-01-05T15:24:42.016Z,3.33
2018-01-05T15:27:09.556Z,3.50
2018-01-05T15:29:37.265Z,4.07
2018-01-05T15:32:04.820Z,2.53
2018-01-05T15:34:32.594Z,2.93
2018-01-05T15:37:00.343Z,3.77
2018-01-05T15:39:27.866Z,2.93
2018-01-05T15:41:55.425Z,4.20
2018-01-05T15:44:22.950Z,3.33
2018-01-05T15:46:50.501Z,3.47
2018-01-05T15:49:18.020Z,3.23
2018-01-05T15:51:45.575Z,4.20
2018-01-05T15:54:13.855Z,4.17
2018-01-05T15:56:41.408Z,3.20
2018-01-05T15:59:08.928Z,3.00
2018-01-05T16:01:36.448Z,4.00
2018-01-05T16:04:03.987Z,3.10
2018-01-05T16:06:31.514Z,3.57
2018-01-05T16:08:59.834Z,2.70
2018-01-05T16:11:27.356Z,3.10
2018-01-05T16:13:54.903Z,3.77
2018-01-05T16:16:22.411Z,3.23
2018-01-05T16:18:49.959Z,4.00
2018-01-05T16:21:17.467Z,4.07
2018-01-05T16:23:45.792Z,3.07
2018-01-05T16:26:13.307Z,2.90
2018-01-05T16:28:40.816Z,3.40
2018-01-05T16:31:08.373Z,3.43
2018-01-05T16:33:36.660Z,3.77
2018-01-05T16:36:04.204Z,3.80
2018-01-05T16:38:31.720Z,3.20
2018-01-05T16:41:00.035Z,3.00
2018-01-05T16:43:27.548Z,4.03
2018-01-05T16:45:55.096Z,3.77
2018-01-05T16:48:22.621Z,2.70
2018-01-05T16:50:50.925Z,2.47
2018-01-05T16:53:18.440Z,3.53
2018-01-05T16:55:45.988Z,2.40
2018-01-05T16:58:13.500Z,2.90
2018-01-05T17:00:41.068Z,3.53
2018-01-05T17:03:08.577Z,2.80
2018-01-05T17:05:36.095Z,3.07
2018-01-05T17:08:03.680Z,2.37
2018-01-05T17:10:31.197Z,2.60
2018-01-05T17:12:59.684Z,3.03
2018-01-05T17:15:27.964Z,3.00
2018-01-05T17:17:56.275Z,2.80
2018-01-05T17:20:23.794Z,3.10
2018-01-05T17:22:51.348Z,4.53
2018-01-05T17:25:18.860Z,3.63
2018-01-05T17:27:47.182Z,3.40
2018-01-05T17:30:14.688Z,5.43
2018-01-05T17:32:43.348Z,4.00
2018-01-05T17:35:10.893Z,4.07
2018-01-05T17:37:38.466Z,3.87
2018-01-05T17:40:06.036Z,3.63
2018-01-05T17:42:33.674Z,3.27
2018-01-05T17:45:01.187Z,4.03
2018-01-05T17:47:29.464Z,3.93
2018-01-05T17:49:57.016Z,3.40
2018-01-05T17:52:24.535Z,4.20
2018-01-05T17:54:52.092Z,3.77
2018-01-05T17:57:19.613Z,3.70
2018-01-05T17:59:47.162Z,3.90
2018-01-05T18:02:14.680Z,4.20
2018-01-05T18:04:42.996Z,3.97
2018-01-05T18:07:11.288Z,5.00
2018-01-05T18:09:39.597Z,5.80
2018-01-05T18:12:07.112Z,4.70
2018-01-05T18:14:34.677Z,5.00
2018-01-05T18:17:02.188Z,4.50
2018-01-05T18:19:29.704Z,3.40
2018-01-05T18:21:57.247Z,3.20
2018-01-05T18:24:25.523Z,2.63
2018-01-05T18:26:53.063Z,2.80
2018-01-05T18:29:20.621Z,3.13
2018-01-05T18:31:48.161Z,3.60
2018-01-05T18:34:15.673Z,2.80
2018-01-05T18:36:43.228Z,2.83
2018-01-05T18:39:10.740Z,3.57
2018-01-05T18:41:38.306Z,3.13
2018-01-05T18:44:05.824Z,3.20
2018-01-05T18:46:33.327Z,3.67
2018-01-05T18:49:00.870Z,3.20
2018-01-05T18:51:28.388Z,2.67
2018-01-05T18:53:55.929Z,3.70
2018-01-05T18:56:23.440Z,3.17
2018-01-05T18:58:50.983Z,4.77
2018-01-05T19:01:18.498Z,3.20
2018-01-05T19:03:46.047Z,2.77
2018-01-05T19:06:13.648Z,3.20
2018-01-05T19:08:41.199Z,4.63
2018-01-05T19:11:08.747Z,3.80
2018-01-05T19:13:36.294Z,4.10
2018-01-05T19:16:03.806Z,3.30
2018-01-05T19:18:31.360Z,4.73
2018-01-05T19:20:58.873Z,4.50
2018-01-05T19:23:26.424Z,4.00
2018-01-05T19:25:54.004Z,4.60
2018-01-05T19:28:21.516Z,3.27
2018-01-05T19:30:49.068Z,3.83
2018-01-05T19:33:17.352Z,4.50
2018-01-05T19:35:44.904Z,3.70
2018-01-05T19:38:12.424Z,4.67
2018-01-05T19:40:40.032Z,3.20
2018-01-05T19:43:07.512Z,5.63
2018-01-05T19:45:35.067Z,3.67
2018-01-05T19:48:03.657Z,4.20
2018-01-05T19:50:31.215Z,4.60
2018-01-05T19:52:58.723Z,4.20
2018-01-05T19:55:26.260Z,3.10
2018-01-05T19:57:53.813Z,3.57
2018-01-05T20:00:22.102Z,2.40
2018-01-05T20:02:49.649Z,2.80
2018-01-05T20:05:17.162Z,2.50
2018-01-05T20:07:44.715Z,3.20
2018-01-05T20:10:12.243Z,2.90
2018-01-05T20:12:39.786Z,3.47
2018-01-05T20:15:07.296Z,5.03
2018-01-05T20:17:34.876Z,4.17
2018-01-05T20:20:02.385Z,3.90
2018-01-05T20:22:30.655Z,1.60
2018-01-05T20:24:58.199Z,1.63
2018-01-05T20:27:26.471Z,2.10
2018-01-05T20:29:54.017Z,1.60
2018-01-05T20:32:21.524Z,1.43
2018-01-05T20:34:49.132Z,1.57
2018-01-05T20:37:16.643Z,1.40
2018-01-05T20:39:44.186Z,1.20
2018-01-05T20:42:12.468Z,1.10
2018-01-05T20:44:40.012Z,1.40
2018-01-05T20:47:07.520Z,2.07
2018-01-05T20:49:35.873Z,2.30
2018-01-05T20:52:03.384Z,1.60
2018-01-05T20:54:31.659Z,1.33
2018-01-05T20:56:59.212Z,1.40
2018-01-05T20:59:26.732Z,1.50
2018-01-05T21:01:58.315Z,1.63
2018-01-05T21:04:26.621Z,1.37
2018-01-05T21:06:55.243Z,1.37
2018-01-05T21:09:22.879Z,1.33
2018-01-05T21:11:50.427Z,1.33
2018-01-05T21:14:21.851Z,1.17
2018-01-05T21:16:50.951Z,1.30
2018-01-05T21:19:18.468Z,1.10
2018-01-05T21:21:47.964Z,1.10
2018-01-05T21:24:16.988Z,1.40
2018-01-05T21:26:45.719Z,2.07
2018-01-05T21:29:13.264Z,1.83
2018-01-05T21:31:41.836Z,1.40
2018-01-05T21:34:09.924Z,1.87
2018-01-05T21:36:38.311Z,1.73
2018-01-05T21:39:05.857Z,1.40
2018-01-05T21:41:33.365Z,2.10
2018-01-05T21:44:00.919Z,1.90
2018-01-05T21:46:28.440Z,2.00
2018-01-05T21:48:55.983Z,3.03
2018-01-05T21:51:24.276Z,2.80
2018-01-05T21:53:52.599Z,2.70
2018-01-05T21:56:20.116Z,19.50
2018-01-05T21:58:47.680Z,11.00
2018-01-05T22:01:15.198Z,6.30
2018-01-05T22:03:43.515Z,6.00
2018-01-05T22:06:11.036Z,5.50
2018-01-05T22:08:38.550Z,5.03
2018-01-05T22:11:06.091Z,5.93
2018-01-05T22:13:34.368Z,4.67
2018-01-05T22:16:01.916Z,4.07
2018-01-05T22:18:29.425Z,3.20
2018-01-05T22:20:57.734Z,2.40
2018-01-05T22:23:25.252Z,2.50
2018-01-05T22:25:52.799Z,3.50
2018-01-05T22:28:20.315Z,2.50
2018-01-05T22:30:48.142Z,2.03
2018-01-05T22:33:15.655Z,2.17
2018-01-05T22:35:43.169Z,2.60
2018-01-05T22:38:10.723Z,2.80
2018-01-05T22:40:39.032Z,2.57
2018-01-05T22:43:06.584Z,3.50
2018-01-05T22:45:34.865Z,2.60
2018-01-05T22:48:02.417Z,2.03
2018-01-05T22:50:29.927Z,2.30
2018-01-05T22:52:58.241Z,1.77
2018-01-05T22:55:25.799Z,1.87
2018-01-05T22:57:53.367Z,1.83
2018-01-05T23:00:20.875Z,1.60
2018-01-05T23:02:48.386Z,1.43
2018-01-05T23:05:15.951Z,2.07
2018-01-05T23:07:43.461Z,2.17
2018-01-05T23:10:11.006Z,2.00
2018-01-05T23:12:38.516Z,1.80
2018-01-05T23:15:06.088Z,1.90
2018-01-05T23:17:33.625Z,2.97
2018-01-05T23:20:01.948Z,2.63
2018-01-05T23:22:29.455Z,1.70
2018-01-05T23:24:57.012Z,1.90
2018-01-05T23:27:24.520Z,2.53
2018-01-05T23:29:52.032Z,1.57
2018-01-05T23:32:19.582Z,1.50
2018-01-05T23:34:47.860Z,1.40
2018-01-05T23:37:16.176Z,1.27
2018-01-05T23:39:43.690Z,1.73
2018-01-05T23:42:11.240Z,1.47
2018-01-05T23:44:38.749Z,1.60
2018-01-05T23:47:06.301Z,1.67
2018-01-05T23:49:33.805Z,1.80
2018-01-05T23:52:01.355Z,2.60
2018-01-05T23:54:28.859Z,1.67
2018-01-05T23:56:57.159Z,2.07
2018-01-05T23:59:24.667Z,1.60
